sensor_id;sensor_type;location;lat;lon;timestamp;pressure;altitude;pressure_sealevel;temperature;humidity
76847;BME280;65813;49.546;8.644;2023-10-13T03:46:35;100448.75;;;17.68;72.47
76847;BME280;65813;49.546;8.644;2023-10-13T03:50:41;100453.19;;;17.77;72.54
76847;BME280;65813;49.546;8.644;2023-10-13T03:55:00;100445.84;;;17.87;72.58
76847;BME280;65813;49.546;8.644;2023-10-13T03:59:06;100437.44;;;17.90;73.17
76847;BME280;65813;49.546;8.644;2023-10-13T04:03:09;100433.47;;;17.77;73.93
76847;BME280;65813;49.546;8.644;2023-10-13T04:07:10;100417.69;;;17.82;74.13
76847;BME280;65813;49.546;8.644;2023-10-13T04:11:10;100417.69;;;17.82;75.24
76847;BME280;65813;49.546;8.644;2023-10-13T04:15:29;100420.63;;;17.96;75.24
76847;BME280;65813;49.546;8.644;2023-10-13T04:19:41;100420.28;;;17.91;75.99
76847;BME280;65813;49.546;8.644;2023-10-13T04:24:02;100405.72;;;17.84;76.70
76847;BME280;65813;49.546;8.644;2023-10-13T04:28:16;100415.41;;;17.95;77.14
76847;BME280;65813;49.546;8.644;2023-10-13T04:32:34;100400.34;;;17.84;77.41
76847;BME280;65813;49.546;8.644;2023-10-13T04:36:55;100411.50;;;17.89;77.63
76847;BME280;65813;49.546;8.644;2023-10-13T04:41:11;100408.16;;;17.95;77.04
76847;BME280;65813;49.546;8.644;2023-10-13T04:45:23;100402.88;;;18.11;76.61
76847;BME280;65813;49.546;8.644;2023-10-13T04:49:34;100386.69;;;18.11;77.04
76847;BME280;65813;49.546;8.644;2023-10-13T04:53:35;100377.94;;;18.09;76.40
76847;BME280;65813;49.546;8.644;2023-10-13T04:57:55;100365.84;;;18.22;75.98
76847;BME280;65813;49.546;8.644;2023-10-13T05:02:11;100375.75;;;18.13;75.92
76847;BME280;65813;49.546;8.644;2023-10-13T05:06:31;100381.16;;;18.13;76.05
76847;BME280;65813;49.546;8.644;2023-10-13T05:10:44;100379.25;;;18.13;75.41
76847;BME280;65813;49.546;8.644;2023-10-13T05:15:03;100368.19;;;18.16;75.40
76847;BME280;65813;49.546;8.644;2023-10-13T05:19:22;100373.91;;;18.22;74.86
76847;BME280;65813;49.546;8.644;2023-10-13T05:23:44;100378.25;;;18.06;74.92
76847;BME280;65813;49.546;8.644;2023-10-13T05:28:03;100365.19;;;17.94;74.15
76847;BME280;65813;49.546;8.644;2023-10-13T05:32:24;100355.91;;;17.88;72.75
76847;BME280;65813;49.546;8.644;2023-10-13T05:36:43;100353.16;;;17.80;71.71
76847;BME280;65813;49.546;8.644;2023-10-13T05:41:03;100353.84;;;17.82;70.56
76847;BME280;65813;49.546;8.644;2023-10-13T05:45:22;100357.75;;;17.88;69.47
76847;BME280;65813;49.546;8.644;2023-10-13T05:49:25;100353.09;;;17.98;68.34
76847;BME280;65813;49.546;8.644;2023-10-13T05:53:50;100352.34;;;17.88;67.77
76847;BME280;65813;49.546;8.644;2023-10-13T05:58:09;100344.91;;;17.82;66.58
76847;BME280;65813;49.546;8.644;2023-10-13T06:02:28;100348.94;;;17.78;66.29
76847;BME280;65813;49.546;8.644;2023-10-13T06:06:47;100337.94;;;17.71;65.55
76847;BME280;65813;49.546;8.644;2023-10-13T06:11:05;100338.41;;;17.66;66.02
76847;BME280;65813;49.546;8.644;2023-10-13T06:15:24;100349.72;;;17.70;65.44
76847;BME280;65813;49.546;8.644;2023-10-13T06:19:43;100355.19;;;17.78;65.32
76847;BME280;65813;49.546;8.644;2023-10-13T06:24:03;100357.22;;;17.84;65.00
76847;BME280;65813;49.546;8.644;2023-10-13T06:28:21;100359.44;;;17.89;64.32
76847;BME280;65813;49.546;8.644;2023-10-13T06:32:42;100365.97;;;17.86;64.34
76847;BME280;65813;49.546;8.644;2023-10-13T06:36:42;100374.78;;;17.96;63.38
76847;BME280;65813;49.546;8.644;2023-10-13T06:40:46;100372.44;;;17.93;63.10
76847;BME280;65813;49.546;8.644;2023-10-13T06:44:48;100375.56;;;18.06;61.63
76847;BME280;65813;49.546;8.644;2023-10-13T06:48:49;100380.75;;;18.08;62.28
76847;BME280;65813;49.546;8.644;2023-10-13T06:52:53;100372.53;;;18.09;62.13
76847;BME280;65813;49.546;8.644;2023-10-13T06:56:55;100388.78;;;18.26;60.17
76847;BME280;65813;49.546;8.644;2023-10-13T07:00:55;100386.41;;;18.23;59.92
76847;BME280;65813;49.546;8.644;2023-10-13T07:04:58;100371.94;;;18.24;61.87
76847;BME280;65813;49.546;8.644;2023-10-13T07:09:07;100380.03;;;18.32;60.17
76847;BME280;65813;49.546;8.644;2023-10-13T07:13:15;100380.72;;;18.34;60.32
76847;BME280;65813;49.546;8.644;2023-10-13T07:17:18;100382.06;;;18.38;60.37
76847;BME280;65813;49.546;8.644;2023-10-13T07:21:24;100373.03;;;18.47;59.25
76847;BME280;65813;49.546;8.644;2023-10-13T07:25:32;100382.38;;;18.60;58.66
76847;BME280;65813;49.546;8.644;2023-10-13T07:29:37;100382.41;;;18.69;58.52
76847;BME280;65813;49.546;8.644;2023-10-13T07:33:37;100382.06;;;18.80;58.72
76847;BME280;65813;49.546;8.644;2023-10-13T07:37:38;100378.38;;;18.81;58.11
76847;BME280;65813;49.546;8.644;2023-10-13T07:41:41;100391.19;;;18.87;58.62
76847;BME280;65813;49.546;8.644;2023-10-13T07:45:42;100384.31;;;18.92;56.77
76847;BME280;65813;49.546;8.644;2023-10-13T07:49:43;100386.16;;;19.00;57.10
76847;BME280;65813;49.546;8.644;2023-10-13T07:53:43;100371.81;;;19.07;57.49
76847;BME280;65813;49.546;8.644;2023-10-13T07:57:43;100376.22;;;19.08;57.39
76847;BME280;65813;49.546;8.644;2023-10-13T08:01:53;100368.81;;;19.27;56.29
76847;BME280;65813;49.546;8.644;2023-10-13T08:06:16;100360.53;;;19.36;56.74
76847;BME280;65813;49.546;8.644;2023-10-13T08:10:17;100373.22;;;19.44;56.26
76847;BME280;65813;49.546;8.644;2023-10-13T08:14:17;100379.31;;;19.46;55.50
76847;BME280;65813;49.546;8.644;2023-10-13T08:18:22;100374.56;;;19.56;55.09
76847;BME280;65813;49.546;8.644;2023-10-13T08:22:33;100373.56;;;19.65;55.56
76847;BME280;65813;49.546;8.644;2023-10-13T08:26:36;100375.56;;;19.63;55.13
76847;BME280;65813;49.546;8.644;2023-10-13T08:30:36;100375.88;;;19.76;54.52
76847;BME280;65813;49.546;8.644;2023-10-13T08:34:56;100371.66;;;19.74;55.19
76847;BME280;65813;49.546;8.644;2023-10-13T08:38:59;100365.75;;;19.78;55.05
76847;BME280;65813;49.546;8.644;2023-10-13T08:43:16;100362.00;;;19.87;54.05
76847;BME280;65813;49.546;8.644;2023-10-13T08:47:18;100355.91;;;19.93;53.64
76847;BME280;65813;49.546;8.644;2023-10-13T08:51:25;100359.66;;;19.92;53.23
76847;BME280;65813;49.546;8.644;2023-10-13T08:55:43;100353.19;;;20.01;52.02
76847;BME280;65813;49.546;8.644;2023-10-13T09:00:01;100357.59;;;20.02;52.64
76847;BME280;65813;49.546;8.644;2023-10-13T09:04:21;100339.50;;;20.03;52.48
76847;BME280;65813;49.546;8.644;2023-10-13T09:08:25;100339.22;;;20.21;51.48
76847;BME280;65813;49.546;8.644;2023-10-13T09:12:35;100343.34;;;20.16;51.74
76847;BME280;65813;49.546;8.644;2023-10-13T09:16:35;100342.63;;;20.23;51.50
76847;BME280;65813;49.546;8.644;2023-10-13T09:20:41;100330.13;;;20.30;51.55
76847;BME280;65813;49.546;8.644;2023-10-13T09:24:41;100329.03;;;20.39;51.28
76847;BME280;65813;49.546;8.644;2023-10-13T09:28:43;100315.47;;;20.47;51.55
76847;BME280;65813;49.546;8.644;2023-10-13T09:32:44;100307.16;;;20.48;50.52
76847;BME280;65813;49.546;8.644;2023-10-13T09:36:49;100287.28;;;20.64;49.73
76847;BME280;65813;49.546;8.644;2023-10-13T09:40:55;100292.88;;;20.85;49.61
76847;BME280;65813;49.546;8.644;2023-10-13T09:45:18;100282.94;;;21.00;48.75
76847;BME280;65813;49.546;8.644;2023-10-13T09:49:24;100288.75;;;21.35;46.81
76847;BME280;65813;49.546;8.644;2023-10-13T09:53:52;100262.31;;;21.51;46.80
76847;BME280;65813;49.546;8.644;2023-10-13T09:58:07;100273.75;;;21.61;48.06
76847;BME280;65813;49.546;8.644;2023-10-13T10:02:14;100260.75;;;21.72;47.24
76847;BME280;65813;49.546;8.644;2023-10-13T10:06:22;100268.34;;;22.05;46.14
76847;BME280;65813;49.546;8.644;2023-10-13T10:19:52;100246.69;;;22.48;45.76
76847;BME280;65813;49.546;8.644;2023-10-13T10:23:57;100265.56;;;22.71;45.22
76847;BME280;65813;49.546;8.644;2023-10-13T10:27:58;100272.41;;;23.37;45.42
76847;BME280;65813;49.546;8.644;2023-10-13T10:36:00;100256.16;;;23.15;44.50
76847;BME280;65813;49.546;8.644;2023-10-13T10:40:07;100246.31;;;23.14;44.21
76847;BME280;65813;49.546;8.644;2023-10-13T10:44:15;100237.59;;;23.26;44.32
76847;BME280;65813;49.546;8.644;2023-10-13T10:48:16;100231.28;;;23.19;43.42
76847;BME280;65813;49.546;8.644;2023-10-13T10:52:18;100226.19;;;23.09;44.22
76847;BME280;65813;49.546;8.644;2023-10-13T10:56:23;100215.50;;;23.07;43.77
76847;BME280;65813;49.546;8.644;2023-10-13T11:00:36;100206.09;;;23.10;44.00
76847;BME280;65813;49.546;8.644;2023-10-13T11:04:51;100189.25;;;23.21;43.76
76847;BME280;65813;49.546;8.644;2023-10-13T11:09:05;100186.72;;;23.13;44.49
76847;BME280;65813;49.546;8.644;2023-10-13T11:13:27;100180.75;;;23.31;43.58
76847;BME280;65813;49.546;8.644;2023-10-13T11:17:31;100174.06;;;23.27;43.45
76847;BME280;65813;49.546;8.644;2023-10-13T11:21:52;100166.03;;;23.19;43.27
76847;BME280;65813;49.546;8.644;2023-10-13T11:25:58;100168.34;;;23.22;43.36
76847;BME280;65813;49.546;8.644;2023-10-13T11:30:01;100171.81;;;23.37;43.24
76847;BME280;65813;49.546;8.644;2023-10-13T11:34:12;100165.31;;;23.38;43.10
76847;BME280;65813;49.546;8.644;2023-10-13T11:38:16;100159.66;;;23.33;43.48
76847;BME280;65813;49.546;8.644;2023-10-13T11:42:37;100150.69;;;23.39;43.66
76847;BME280;65813;49.546;8.644;2023-10-13T11:46:43;100152.22;;;23.48;43.05
76847;BME280;65813;49.546;8.644;2023-10-13T11:50:44;100150.81;;;23.58;42.89
76847;BME280;65813;49.546;8.644;2023-10-13T11:54:46;100153.81;;;23.77;41.85
76847;BME280;65813;49.546;8.644;2023-10-13T11:58:47;100130.63;;;23.87;42.73
76847;BME280;65813;49.546;8.644;2023-10-13T12:02:48;100129.22;;;24.11;41.80
76847;BME280;65813;49.546;8.644;2023-10-13T12:07:07;100114.97;;;24.02;42.19
76847;BME280;65813;49.546;8.644;2023-10-13T12:11:26;100102.69;;;24.46;40.52
76847;BME280;65813;49.546;8.644;2023-10-13T12:15:33;100098.50;;;25.02;40.34
76847;BME280;65813;49.546;8.644;2023-10-13T12:19:52;100099.56;;;24.95;39.74
76847;BME280;65813;49.546;8.644;2023-10-13T12:23:52;100095.56;;;24.71;41.30
76847;BME280;65813;49.546;8.644;2023-10-13T12:27:55;100082.78;;;24.85;39.63
76847;BME280;65813;49.546;8.644;2023-10-13T12:32:00;100078.81;;;24.68;40.15
76847;BME280;65813;49.546;8.644;2023-10-13T12:36:12;100077.13;;;24.60;40.70
76847;BME280;65813;49.546;8.644;2023-10-13T12:40:22;100058.94;;;24.41;41.29
76847;BME280;65813;49.546;8.644;2023-10-13T12:44:40;100067.09;;;24.54;41.72
76847;BME280;65813;49.546;8.644;2023-10-13T12:48:59;100046.94;;;24.68;39.75
76847;BME280;65813;49.546;8.644;2023-10-13T12:53:25;100043.03;;;25.22;42.11
76847;BME280;65813;49.546;8.644;2023-10-13T12:57:31;100037.06;;;25.89;38.94
76847;BME280;65813;49.546;8.644;2023-10-13T13:01:32;100036.13;;;26.01;37.82
76847;BME280;65813;49.546;8.644;2023-10-13T13:05:35;100033.94;;;26.17;37.69
76847;BME280;65813;49.546;8.644;2023-10-13T13:09:44;100033.16;;;26.09;38.20
76847;BME280;65813;49.546;8.644;2023-10-13T13:13:45;100021.88;;;25.99;38.11
76847;BME280;65813;49.546;8.644;2023-10-13T13:17:46;100011.53;;;26.33;38.10
76847;BME280;65813;49.546;8.644;2023-10-13T13:21:46;100018.50;;;25.97;37.92
76847;BME280;65813;49.546;8.644;2023-10-13T13:25:48;100004.31;;;26.13;36.97
76847;BME280;65813;49.546;8.644;2023-10-13T13:29:49;99999.59;;;26.02;37.98
76847;BME280;65813;49.546;8.644;2023-10-13T13:33:49;99992.31;;;25.90;37.27
76847;BME280;65813;49.546;8.644;2023-10-13T13:37:50;99982.88;;;25.92;38.60
76847;BME280;65813;49.546;8.644;2023-10-13T13:41:50;99988.78;;;25.83;39.05
76847;BME280;65813;49.546;8.644;2023-10-13T13:45:58;99978.81;;;25.70;38.29
76847;BME280;65813;49.546;8.644;2023-10-13T13:50:01;99968.59;;;25.90;37.35
76847;BME280;65813;49.546;8.644;2023-10-13T13:54:05;99962.09;;;26.16;37.21
76847;BME280;65813;49.546;8.644;2023-10-13T13:58:07;99961.31;;;26.52;37.33
76847;BME280;65813;49.546;8.644;2023-10-13T14:02:10;99956.78;;;26.21;37.66
76847;BME280;65813;49.546;8.644;2023-10-13T14:06:21;99944.81;;;26.65;36.04
76847;BME280;65813;49.546;8.644;2023-10-13T14:10:25;99943.53;;;26.25;36.62
76847;BME280;65813;49.546;8.644;2023-10-13T14:14:31;99939.97;;;25.75;38.38
76847;BME280;65813;49.546;8.644;2023-10-13T14:18:33;99935.84;;;25.59;38.50
76847;BME280;65813;49.546;8.644;2023-10-13T14:22:34;99924.56;;;25.49;37.17
76847;BME280;65813;49.546;8.644;2023-10-13T14:26:37;99917.66;;;25.46;38.20
76847;BME280;65813;49.546;8.644;2023-10-13T14:30:37;99912.34;;;25.27;38.53
76847;BME280;65813;49.546;8.644;2023-10-13T14:34:39;99906.69;;;25.22;39.15
76847;BME280;65813;49.546;8.644;2023-10-13T14:38:40;99907.78;;;25.14;39.72
76847;BME280;65813;49.546;8.644;2023-10-13T14:42:44;99911.59;;;25.13;39.28
76847;BME280;65813;49.546;8.644;2023-10-13T14:46:46;99906.94;;;25.13;38.48
76847;BME280;65813;49.546;8.644;2023-10-13T14:50:46;99892.22;;;25.21;37.89
76847;BME280;65813;49.546;8.644;2023-10-13T14:54:47;99883.19;;;25.21;39.43
76847;BME280;65813;49.546;8.644;2023-10-13T14:58:50;99876.81;;;25.02;39.10
76847;BME280;65813;49.546;8.644;2023-10-13T15:02:52;99877.44;;;25.04;39.26
76847;BME280;65813;49.546;8.644;2023-10-13T15:06:53;99866.16;;;24.94;40.35
76847;BME280;65813;49.546;8.644;2023-10-13T15:10:53;99858.75;;;25.07;39.64
76847;BME280;65813;49.546;8.644;2023-10-13T15:14:55;99844.88;;;25.16;39.15
76847;BME280;65813;49.546;8.644;2023-10-13T15:18:56;99830.66;;;25.07;38.73
76847;BME280;65813;49.546;8.644;2023-10-13T15:22:56;99826.72;;;24.96;39.21
76847;BME280;65813;49.546;8.644;2023-10-13T15:26:59;99816.00;;;25.01;38.57
76847;BME280;65813;49.546;8.644;2023-10-13T15:31:11;99815.31;;;25.12;38.69
76847;BME280;65813;49.546;8.644;2023-10-13T15:35:23;99806.44;;;25.24;38.48
76847;BME280;65813;49.546;8.644;2023-10-13T15:39:28;99804.06;;;25.27;37.73
76847;BME280;65813;49.546;8.644;2023-10-13T15:43:31;99798.06;;;25.19;37.72
76847;BME280;65813;49.546;8.644;2023-10-13T15:47:32;99789.44;;;25.22;36.91
76847;BME280;65813;49.546;8.644;2023-10-13T15:51:35;99785.03;;;25.21;37.49
76847;BME280;65813;49.546;8.644;2023-10-13T15:55:39;99788.34;;;24.98;38.93
76847;BME280;65813;49.546;8.644;2023-10-13T15:59:40;99780.63;;;24.95;38.55
76847;BME280;65813;49.546;8.644;2023-10-13T16:03:41;99786.13;;;24.88;38.54
76847;BME280;65813;49.546;8.644;2023-10-13T16:07:52;99782.22;;;24.71;39.41
76847;BME280;65813;49.546;8.644;2023-10-13T16:11:53;99777.91;;;24.57;39.84
76847;BME280;65813;49.546;8.644;2023-10-13T16:15:54;99778.81;;;24.38;40.22
76847;BME280;65813;49.546;8.644;2023-10-13T16:19:54;99766.50;;;24.29;40.65
76847;BME280;65813;49.546;8.644;2023-10-13T16:23:55;99758.94;;;24.37;40.53
76847;BME280;65813;49.546;8.644;2023-10-13T16:27:55;99744.28;;;24.32;40.98
76847;BME280;65813;49.546;8.644;2023-10-13T16:31:55;99752.53;;;24.19;40.11
76847;BME280;65813;49.546;8.644;2023-10-13T16:35:56;99753.19;;;24.01;40.71
76847;BME280;65813;49.546;8.644;2023-10-13T16:39:57;99744.84;;;23.96;41.37
76847;BME280;65813;49.546;8.644;2023-10-13T16:44:05;99746.94;;;23.87;41.28
76847;BME280;65813;49.546;8.644;2023-10-13T16:48:10;99744.03;;;23.82;40.49
76847;BME280;65813;49.546;8.644;2023-10-13T16:52:13;99751.56;;;23.80;40.62
76847;BME280;65813;49.546;8.644;2023-10-13T16:56:13;99740.91;;;23.65;40.22
76847;BME280;65813;49.546;8.644;2023-10-13T17:00:14;99744.50;;;23.53;41.38
76847;BME280;65813;49.546;8.644;2023-10-13T17:04:14;99757.69;;;23.56;41.25
76847;BME280;65813;49.546;8.644;2023-10-13T17:08:19;99748.91;;;23.54;41.14
76847;BME280;65813;49.546;8.644;2023-10-13T17:12:19;99745.38;;;23.47;42.27
76847;BME280;65813;49.546;8.644;2023-10-13T17:16:23;99739.50;;;23.50;40.12
76847;BME280;65813;49.546;8.644;2023-10-13T17:20:23;99728.19;;;23.53;39.22
76847;BME280;65813;49.546;8.644;2023-10-13T17:24:24;99731.94;;;23.52;38.09
76847;BME280;65813;49.546;8.644;2023-10-13T17:28:25;99725.03;;;23.56;38.54
76847;BME280;65813;49.546;8.644;2023-10-13T17:32:25;99718.56;;;23.57;37.27
76847;BME280;65813;49.546;8.644;2023-10-13T17:36:26;99715.63;;;23.58;37.65
76847;BME280;65813;49.546;8.644;2023-10-13T17:40:29;99715.81;;;23.70;36.92
76847;BME280;65813;49.546;8.644;2023-10-13T17:44:30;99712.22;;;23.76;35.90
76847;BME280;65813;49.546;8.644;2023-10-13T17:48:31;99710.16;;;23.72;36.10
76847;BME280;65813;49.546;8.644;2023-10-13T17:52:32;99713.72;;;23.79;37.42
76847;BME280;65813;49.546;8.644;2023-10-13T17:56:32;99705.78;;;23.71;35.61
76847;BME280;65813;49.546;8.644;2023-10-13T18:00:33;99695.50;;;23.73;35.50
76847;BME280;65813;49.546;8.644;2023-10-13T18:04:33;99694.88;;;23.77;34.34
76847;BME280;65813;49.546;8.644;2023-10-13T18:08:33;99700.28;;;23.84;33.50
76847;BME280;65813;49.546;8.644;2023-10-13T18:12:34;99697.97;;;23.87;33.15
76847;BME280;65813;49.546;8.644;2023-10-13T18:16:37;99673.72;;;23.86;33.96
76847;BME280;65813;49.546;8.644;2023-10-13T18:20:38;99665.00;;;23.64;33.87
76847;BME280;65813;49.546;8.644;2023-10-13T18:24:38;99674.16;;;23.70;35.15
76847;BME280;65813;49.546;8.644;2023-10-13T18:28:40;99677.13;;;23.68;33.47
76847;BME280;65813;49.546;8.644;2023-10-13T18:32:43;99671.34;;;23.89;31.94
76847;BME280;65813;49.546;8.644;2023-10-13T18:36:44;99668.63;;;23.89;32.13
76847;BME280;65813;49.546;8.644;2023-10-13T18:40:55;99673.69;;;23.92;31.81
76847;BME280;65813;49.546;8.644;2023-10-13T18:44:56;99664.88;;;23.90;32.71
76847;BME280;65813;49.546;8.644;2023-10-13T18:48:57;99657.56;;;23.91;32.88
76847;BME280;65813;49.546;8.644;2023-10-13T18:53:02;99657.16;;;23.87;31.94
76847;BME280;65813;49.546;8.644;2023-10-13T18:57:02;99665.75;;;23.84;31.97
76847;BME280;65813;49.546;8.644;2023-10-13T19:01:20;99664.72;;;23.85;32.84
76847;BME280;65813;49.546;8.644;2023-10-13T19:05:24;99655.94;;;23.77;32.88
76847;BME280;65813;49.546;8.644;2023-10-13T19:09:25;99652.19;;;23.78;32.33
76847;BME280;65813;49.546;8.644;2023-10-13T19:13:27;99643.38;;;23.82;32.37
76847;BME280;65813;49.546;8.644;2023-10-13T19:17:28;99651.53;;;23.82;31.89
76847;BME280;65813;49.546;8.644;2023-10-13T19:21:29;99642.97;;;23.79;32.89
76847;BME280;65813;49.546;8.644;2023-10-13T19:25:34;99646.09;;;23.82;31.21
76847;BME280;65813;49.546;8.644;2023-10-13T19:29:34;99639.47;;;23.65;31.79
76847;BME280;65813;49.546;8.644;2023-10-13T19:33:34;99645.13;;;23.63;32.62
76847;BME280;65813;49.546;8.644;2023-10-13T19:37:35;99651.63;;;23.56;33.64
76847;BME280;65813;49.546;8.644;2023-10-13T19:41:42;99643.69;;;23.48;32.47
76847;BME280;65813;49.546;8.644;2023-10-13T19:45:43;99660.03;;;23.41;34.20
76847;BME280;65813;49.546;8.644;2023-10-13T19:49:44;99653.78;;;23.41;32.66
76847;BME280;65813;49.546;8.644;2023-10-13T19:53:45;99654.16;;;23.31;32.50
76847;BME280;65813;49.546;8.644;2023-10-13T19:57:47;99657.13;;;23.23;33.89
76847;BME280;65813;49.546;8.644;2023-10-13T20:01:47;99656.06;;;23.17;33.23
76847;BME280;65813;49.546;8.644;2023-10-13T20:05:50;99656.50;;;23.14;33.35
76847;BME280;65813;49.546;8.644;2023-10-13T20:09:54;99657.94;;;23.17;34.38
76847;BME280;65813;49.546;8.644;2023-10-13T20:13:54;99664.66;;;23.08;33.83
76847;BME280;65813;49.546;8.644;2023-10-13T20:17:58;99657.97;;;23.10;33.65
76847;BME280;65813;49.546;8.644;2023-10-13T20:21:58;99665.50;;;23.02;34.32
76847;BME280;65813;49.546;8.644;2023-10-13T20:26:06;99665.50;;;22.95;35.08
76847;BME280;65813;49.546;8.644;2023-10-13T20:30:07;99665.94;;;22.92;35.15
76847;BME280;65813;49.546;8.644;2023-10-13T20:34:10;99655.06;;;22.92;34.92
76847;BME280;65813;49.546;8.644;2023-10-13T20:38:12;99658.81;;;22.91;34.94
76847;BME280;65813;49.546;8.644;2023-10-13T20:42:13;99664.88;;;22.87;35.18
76847;BME280;65813;49.546;8.644;2023-10-13T20:46:15;99663.00;;;22.81;35.24
76847;BME280;65813;49.546;8.644;2023-10-13T20:50:21;99662.16;;;22.74;35.39
76847;BME280;65813;49.546;8.644;2023-10-13T20:54:21;99668.63;;;22.79;35.31
76847;BME280;65813;49.546;8.644;2023-10-13T20:58:22;99659.44;;;22.67;36.15
76847;BME280;65813;49.546;8.644;2023-10-13T21:02:24;99670.50;;;22.72;35.48
76847;BME280;65813;49.546;8.644;2023-10-13T21:06:25;99667.13;;;22.57;37.14
76847;BME280;65813;49.546;8.644;2023-10-13T21:10:25;99684.69;;;22.61;36.15
76847;BME280;65813;49.546;8.644;2023-10-13T21:14:25;99685.50;;;22.55;36.03
